sensor_id;sensor_type;location;lat;lon;timestamp;P1;durP1;ratioP1;P2;durP2;ratioP2
52512;SDS011;38422;53.172;6.974;2023-07-20T00:01:28;1.95;;;0.90;;
52512;SDS011;38422;53.172;6.974;2023-07-20T00:03:53;1.67;;;0.82;;
52512;SDS011;38422;53.172;6.974;2023-07-20T00:06:22;1.38;;;0.73;;
52512;SDS011;38422;53.172;6.974;2023-07-20T00:08:50;1.85;;;0.82;;
52512;SDS011;38422;53.172;6.974;2023-07-20T00:11:16;0.90;;;0.50;;
52512;SDS011;38422;53.172;6.974;2023-07-20T00:13:42;1.58;;;0.70;;
52512;SDS011;38422;53.172;6.974;2023-07-20T00:16:07;1.25;;;0.70;;
52512;SDS011;38422;53.172;6.974;2023-07-20T00:18:33;1.67;;;0.52;;
52512;SDS011;38422;53.172;6.974;2023-07-20T00:20:59;1.70;;;0.68;;
52512;SDS011;38422;53.172;6.974;2023-07-20T00:23:25;2.05;;;0.80;;
52512;SDS011;38422;53.172;6.974;2023-07-20T00:25:51;1.17;;;0.63;;
52512;SDS011;38422;53.172;6.974;2023-07-20T00:28:17;0.90;;;0.60;;
52512;SDS011;38422;53.172;6.974;2023-07-20T00:30:43;0.93;;;0.60;;
52512;SDS011;38422;53.172;6.974;2023-07-20T00:33:10;1.73;;;0.80;;
52512;SDS011;38422;53.172;6.974;2023-07-20T00:35:36;1.73;;;0.80;;
52512;SDS011;38422;53.172;6.974;2023-07-20T00:38:03;1.00;;;0.60;;
52512;SDS011;38422;53.172;6.974;2023-07-20T00:40:35;2.35;;;0.70;;
52512;SDS011;38422;53.172;6.974;2023-07-20T00:43:04;1.45;;;1.00;;
52512;SDS011;38422;53.172;6.974;2023-07-20T00:45:30;2.15;;;0.90;;
52512;SDS011;38422;53.172;6.974;2023-07-20T00:47:56;2.88;;;1.08;;
52512;SDS011;38422;53.172;6.974;2023-07-20T00:50:23;2.80;;;1.10;;
52512;SDS011;38422;53.172;6.974;2023-07-20T00:52:53;2.50;;;1.30;;
52512;SDS011;38422;53.172;6.974;2023-07-20T00:57:45;1.95;;;1.10;;
52512;SDS011;38422;53.172;6.974;2023-07-20T01:00:12;2.60;;;1.30;;
52512;SDS011;38422;53.172;6.974;2023-07-20T01:02:38;1.92;;;1.30;;
52512;SDS011;38422;53.172;6.974;2023-07-20T01:05:04;2.38;;;1.20;;
52512;SDS011;38422;53.172;6.974;2023-07-20T01:07:35;2.65;;;1.27;;
52512;SDS011;38422;53.172;6.974;2023-07-20T01:12:48;2.03;;;1.20;;
52512;SDS011;38422;53.172;6.974;2023-07-20T01:15:17;2.42;;;1.40;;
52512;SDS011;38422;53.172;6.974;2023-07-20T01:17:43;3.10;;;1.92;;
52512;SDS011;38422;53.172;6.974;2023-07-20T01:20:10;2.22;;;1.40;;
52512;SDS011;38422;53.172;6.974;2023-07-20T01:28:04;2.97;;;1.73;;
52512;SDS011;38422;53.172;6.974;2023-07-20T01:33:52;2.08;;;1.55;;
52512;SDS011;38422;53.172;6.974;2023-07-20T01:36:21;1.90;;;1.50;;
52512;SDS011;38422;53.172;6.974;2023-07-20T01:38:49;1.85;;;1.40;;
52512;SDS011;38422;53.172;6.974;2023-07-20T01:41:17;2.75;;;1.50;;
52512;SDS011;38422;53.172;6.974;2023-07-20T01:43:43;2.00;;;1.35;;
52512;SDS011;38422;53.172;6.974;2023-07-20T01:46:09;3.80;;;1.50;;
52512;SDS011;38422;53.172;6.974;2023-07-20T01:48:35;1.77;;;1.42;;
52512;SDS011;38422;53.172;6.974;2023-07-20T01:51:01;2.55;;;1.45;;
52512;SDS011;38422;53.172;6.974;2023-07-20T01:53:26;2.97;;;1.50;;
52512;SDS011;38422;53.172;6.974;2023-07-20T01:55:53;1.95;;;1.45;;
52512;SDS011;38422;53.172;6.974;2023-07-20T01:58:19;1.65;;;1.40;;
52512;SDS011;38422;53.172;6.974;2023-07-20T02:00:45;2.65;;;1.70;;
52512;SDS011;38422;53.172;6.974;2023-07-20T02:03:11;1.77;;;1.40;;
52512;SDS011;38422;53.172;6.974;2023-07-20T02:05:37;3.35;;;1.40;;
52512;SDS011;38422;53.172;6.974;2023-07-20T02:08:03;2.60;;;1.38;;
52512;SDS011;38422;53.172;6.974;2023-07-20T02:10:29;2.50;;;1.38;;
52512;SDS011;38422;53.172;6.974;2023-07-20T02:12:55;2.80;;;1.27;;
52512;SDS011;38422;53.172;6.974;2023-07-20T02:15:21;1.92;;;1.27;;
52512;SDS011;38422;53.172;6.974;2023-07-20T02:17:47;5.90;;;1.47;;
52512;SDS011;38422;53.172;6.974;2023-07-20T02:20:13;3.70;;;1.48;;
52512;SDS011;38422;53.172;6.974;2023-07-20T02:22:39;1.50;;;1.33;;
52512;SDS011;38422;53.172;6.974;2023-07-20T02:25:05;1.98;;;1.50;;
52512;SDS011;38422;53.172;6.974;2023-07-20T02:27:32;2.13;;;1.30;;
52512;SDS011;38422;53.172;6.974;2023-07-20T02:29:59;2.55;;;1.25;;
52512;SDS011;38422;53.172;6.974;2023-07-20T02:32:25;2.05;;;1.40;;
52512;SDS011;38422;53.172;6.974;2023-07-20T02:34:50;2.55;;;1.55;;
52512;SDS011;38422;53.172;6.974;2023-07-20T02:37:16;2.05;;;1.50;;
52512;SDS011;38422;53.172;6.974;2023-07-20T02:39:42;2.05;;;1.40;;
52512;SDS011;38422;53.172;6.974;2023-07-20T02:42:08;3.80;;;1.40;;
52512;SDS011;38422;53.172;6.974;2023-07-20T02:44:34;3.15;;;1.42;;
52512;SDS011;38422;53.172;6.974;2023-07-20T02:46:59;2.13;;;1.27;;
52512;SDS011;38422;53.172;6.974;2023-07-20T02:49:26;1.67;;;1.20;;
52512;SDS011;38422;53.172;6.974;2023-07-20T02:51:51;3.92;;;1.27;;
52512;SDS011;38422;53.172;6.974;2023-07-20T02:54:17;2.58;;;1.35;;
52512;SDS011;38422;53.172;6.974;2023-07-20T02:56:43;3.10;;;1.10;;
52512;SDS011;38422;53.172;6.974;2023-07-20T02:59:09;3.05;;;1.10;;
52512;SDS011;38422;53.172;6.974;2023-07-20T03:01:34;2.75;;;1.20;;
52512;SDS011;38422;53.172;6.974;2023-07-20T03:04:00;2.00;;;1.00;;
52512;SDS011;38422;53.172;6.974;2023-07-20T03:06:26;1.85;;;1.00;;
52512;SDS011;38422;53.172;6.974;2023-07-20T03:08:52;1.48;;;1.00;;
52512;SDS011;38422;53.172;6.974;2023-07-20T03:11:18;1.67;;;1.00;;
52512;SDS011;38422;53.172;6.974;2023-07-20T03:13:45;1.90;;;0.90;;
52512;SDS011;38422;53.172;6.974;2023-07-20T03:16:12;2.90;;;1.05;;
52512;SDS011;38422;53.172;6.974;2023-07-20T03:18:40;2.20;;;1.00;;
52512;SDS011;38422;53.172;6.974;2023-07-20T03:21:07;1.30;;;0.90;;
52512;SDS011;38422;53.172;6.974;2023-07-20T03:23:33;1.17;;;1.05;;
52512;SDS011;38422;53.172;6.974;2023-07-20T03:26:00;1.88;;;0.95;;
52512;SDS011;38422;53.172;6.974;2023-07-20T03:28:25;1.27;;;0.80;;
52512;SDS011;38422;53.172;6.974;2023-07-20T03:30:57;1.85;;;0.98;;
52512;SDS011;38422;53.172;6.974;2023-07-20T03:33:27;2.30;;;0.90;;
52512;SDS011;38422;53.172;6.974;2023-07-20T03:35:54;2.85;;;1.00;;
52512;SDS011;38422;53.172;6.974;2023-07-20T03:38:21;1.97;;;1.00;;
52512;SDS011;38422;53.172;6.974;2023-07-20T03:40:54;1.23;;;0.90;;
52512;SDS011;38422;53.172;6.974;2023-07-20T03:43:25;2.08;;;1.02;;
52512;SDS011;38422;53.172;6.974;2023-07-20T03:48:18;1.52;;;0.80;;
52512;SDS011;38422;53.172;6.974;2023-07-20T03:50:45;1.63;;;1.05;;
52512;SDS011;38422;53.172;6.974;2023-07-20T03:53:12;1.85;;;0.90;;
52512;SDS011;38422;53.172;6.974;2023-07-20T03:55:39;3.10;;;1.10;;
52512;SDS011;38422;53.172;6.974;2023-07-20T03:58:08;4.18;;;1.00;;
52512;SDS011;38422;53.172;6.974;2023-07-20T04:00:34;2.20;;;1.10;;
52512;SDS011;38422;53.172;6.974;2023-07-20T04:03:00;2.28;;;1.10;;
52512;SDS011;38422;53.172;6.974;2023-07-20T04:05:25;2.30;;;1.10;;
52512;SDS011;38422;53.172;6.974;2023-07-20T04:07:51;2.72;;;1.13;;
52512;SDS011;38422;53.172;6.974;2023-07-20T04:10:20;2.38;;;1.15;;
52512;SDS011;38422;53.172;6.974;2023-07-20T04:12:46;2.20;;;1.10;;
52512;SDS011;38422;53.172;6.974;2023-07-20T04:15:12;2.70;;;1.10;;
52512;SDS011;38422;53.172;6.974;2023-07-20T04:17:39;2.55;;;1.00;;
52512;SDS011;38422;53.172;6.974;2023-07-20T04:20:06;2.10;;;1.00;;
52512;SDS011;38422;53.172;6.974;2023-07-20T04:22:32;1.52;;;1.00;;
52512;SDS011;38422;53.172;6.974;2023-07-20T04:24:58;2.60;;;1.20;;
52512;SDS011;38422;53.172;6.974;2023-07-20T04:27:23;2.22;;;1.05;;
52512;SDS011;38422;53.172;6.974;2023-07-20T04:29:49;3.15;;;1.20;;
52512;SDS011;38422;53.172;6.974;2023-07-20T04:32:15;2.67;;;1.15;;
52512;SDS011;38422;53.172;6.974;2023-07-20T04:34:40;2.72;;;1.20;;
52512;SDS011;38422;53.172;6.974;2023-07-20T04:37:07;2.85;;;1.25;;
52512;SDS011;38422;53.172;6.974;2023-07-20T04:39:33;2.28;;;1.30;;
52512;SDS011;38422;53.172;6.974;2023-07-20T04:41:59;3.50;;;1.27;;
52512;SDS011;38422;53.172;6.974;2023-07-20T04:44:24;2.33;;;1.27;;
52512;SDS011;38422;53.172;6.974;2023-07-20T04:46:50;2.92;;;1.48;;
52512;SDS011;38422;53.172;6.974;2023-07-20T04:49:16;4.78;;;1.20;;
52512;SDS011;38422;53.172;6.974;2023-07-20T04:51:41;3.20;;;1.25;;
52512;SDS011;38422;53.172;6.974;2023-07-20T04:54:07;2.85;;;1.50;;
52512;SDS011;38422;53.172;6.974;2023-07-20T04:56:33;4.22;;;1.42;;
52512;SDS011;38422;53.172;6.974;2023-07-20T04:58:59;2.35;;;1.50;;
52512;SDS011;38422;53.172;6.974;2023-07-20T05:01:25;5.00;;;1.35;;
52512;SDS011;38422;53.172;6.974;2023-07-20T05:03:51;4.82;;;1.45;;
52512;SDS011;38422;53.172;6.974;2023-07-20T05:06:18;3.55;;;1.20;;
52512;SDS011;38422;53.172;6.974;2023-07-20T05:08:44;1.83;;;1.15;;
52512;SDS011;38422;53.172;6.974;2023-07-20T05:11:10;5.03;;;1.40;;
52512;SDS011;38422;53.172;6.974;2023-07-20T05:13:37;3.83;;;1.40;;
52512;SDS011;38422;53.172;6.974;2023-07-20T05:16:02;2.50;;;1.30;;
52512;SDS011;38422;53.172;6.974;2023-07-20T05:18:28;3.17;;;1.20;;
52512;SDS011;38422;53.172;6.974;2023-07-20T05:20:54;3.13;;;1.17;;
52512;SDS011;38422;53.172;6.974;2023-07-20T05:23:20;3.50;;;1.13;;
52512;SDS011;38422;53.172;6.974;2023-07-20T05:25:46;3.85;;;1.40;;
52512;SDS011;38422;53.172;6.974;2023-07-20T05:28:12;1.40;;;0.98;;
52512;SDS011;38422;53.172;6.974;2023-07-20T05:30:38;4.82;;;1.00;;
52512;SDS011;38422;53.172;6.974;2023-07-20T05:33:04;4.03;;;1.20;;
52512;SDS011;38422;53.172;6.974;2023-07-20T05:35:30;2.90;;;1.10;;
52512;SDS011;38422;53.172;6.974;2023-07-20T05:37:56;4.00;;;1.08;;
52512;SDS011;38422;53.172;6.974;2023-07-20T05:40:22;3.08;;;1.20;;
52512;SDS011;38422;53.172;6.974;2023-07-20T05:42:48;4.97;;;1.35;;
52512;SDS011;38422;53.172;6.974;2023-07-20T05:45:16;1.75;;;1.10;;
52512;SDS011;38422;53.172;6.974;2023-07-20T05:47:42;2.78;;;1.10;;
52512;SDS011;38422;53.172;6.974;2023-07-20T05:50:08;3.30;;;1.10;;
52512;SDS011;38422;53.172;6.974;2023-07-20T05:52:35;2.30;;;0.80;;
52512;SDS011;38422;53.172;6.974;2023-07-20T05:55:00;2.85;;;0.90;;
52512;SDS011;38422;53.172;6.974;2023-07-20T05:57:26;3.30;;;1.20;;
52512;SDS011;38422;53.172;6.974;2023-07-20T05:59:52;3.13;;;1.13;;
52512;SDS011;38422;53.172;6.974;2023-07-20T06:02:18;3.78;;;1.17;;
52512;SDS011;38422;53.172;6.974;2023-07-20T06:04:43;3.03;;;1.05;;
52512;SDS011;38422;53.172;6.974;2023-07-20T06:07:09;5.60;;;1.60;;
52512;SDS011;38422;53.172;6.974;2023-07-20T06:09:35;4.05;;;1.00;;
52512;SDS011;38422;53.172;6.974;2023-07-20T06:12:01;1.73;;;1.00;;
52512;SDS011;38422;53.172;6.974;2023-07-20T06:14:27;2.15;;;0.98;;
52512;SDS011;38422;53.172;6.974;2023-07-20T06:16:53;2.17;;;0.80;;
52512;SDS011;38422;53.172;6.974;2023-07-20T06:19:19;3.08;;;0.82;;
52512;SDS011;38422;53.172;6.974;2023-07-20T06:21:44;2.83;;;0.77;;
52512;SDS011;38422;53.172;6.974;2023-07-20T06:24:10;3.55;;;0.60;;
52512;SDS011;38422;53.172;6.974;2023-07-20T06:26:36;0.50;;;0.50;;
52512;SDS011;38422;53.172;6.974;2023-07-20T06:29:07;4.32;;;0.80;;
52512;SDS011;38422;53.172;6.974;2023-07-20T06:31:34;3.95;;;0.70;;
52512;SDS011;38422;53.172;6.974;2023-07-20T06:34:01;3.63;;;1.00;;
52512;SDS011;38422;53.172;6.974;2023-07-20T06:36:27;1.15;;;0.60;;
52512;SDS011;38422;53.172;6.974;2023-07-20T06:38:53;3.15;;;0.70;;
52512;SDS011;38422;53.172;6.974;2023-07-20T06:41:19;2.95;;;0.80;;
52512;SDS011;38422;53.172;6.974;2023-07-20T06:43:45;3.80;;;0.80;;
52512;SDS011;38422;53.172;6.974;2023-07-20T06:46:11;4.33;;;0.80;;
52512;SDS011;38422;53.172;6.974;2023-07-20T06:48:37;3.03;;;0.90;;
52512;SDS011;38422;53.172;6.974;2023-07-20T06:51:03;2.08;;;0.85;;
52512;SDS011;38422;53.172;6.974;2023-07-20T06:53:29;3.38;;;0.68;;
52512;SDS011;38422;53.172;6.974;2023-07-20T06:55:55;1.50;;;0.70;;
52512;SDS011;38422;53.172;6.974;2023-07-20T06:58:24;2.15;;;0.68;;
52512;SDS011;38422;53.172;6.974;2023-07-20T07:00:51;1.63;;;0.88;;
52512;SDS011;38422;53.172;6.974;2023-07-20T07:03:16;1.90;;;0.70;;
52512;SDS011;38422;53.172;6.974;2023-07-20T07:05:43;2.80;;;0.70;;
52512;SDS011;38422;53.172;6.974;2023-07-20T07:08:10;3.55;;;0.90;;
52512;SDS011;38422;53.172;6.974;2023-07-20T07:10:36;2.10;;;0.70;;
52512;SDS011;38422;53.172;6.974;2023-07-20T07:13:02;1.48;;;0.80;;
52512;SDS011;38422;53.172;6.974;2023-07-20T07:15:28;1.70;;;0.83;;
52512;SDS011;38422;53.172;6.974;2023-07-20T07:17:54;2.08;;;0.90;;
52512;SDS011;38422;53.172;6.974;2023-07-20T07:20:21;3.72;;;1.00;;
52512;SDS011;38422;53.172;6.974;2023-07-20T07:22:49;3.85;;;0.80;;
52512;SDS011;38422;53.172;6.974;2023-07-20T07:25:17;3.33;;;1.00;;
52512;SDS011;38422;53.172;6.974;2023-07-20T07:27:42;3.83;;;1.08;;
52512;SDS011;38422;53.172;6.974;2023-07-20T07:30:08;2.78;;;1.10;;
52512;SDS011;38422;53.172;6.974;2023-07-20T07:32:35;4.05;;;1.20;;
52512;SDS011;38422;53.172;6.974;2023-07-20T07:35:00;4.45;;;1.20;;
52512;SDS011;38422;53.172;6.974;2023-07-20T07:37:26;2.25;;;0.90;;
52512;SDS011;38422;53.172;6.974;2023-07-20T07:39:52;3.03;;;1.10;;
52512;SDS011;38422;53.172;6.974;2023-07-20T07:42:17;3.60;;;1.10;;
52512;SDS011;38422;53.172;6.974;2023-07-20T07:44:46;3.08;;;1.25;;
52512;SDS011;38422;53.172;6.974;2023-07-20T07:47:12;4.85;;;1.40;;
52512;SDS011;38422;53.172;6.974;2023-07-20T07:49:37;5.22;;;1.50;;
52512;SDS011;38422;53.172;6.974;2023-07-20T07:52:03;2.90;;;1.50;;
52512;SDS011;38422;53.172;6.974;2023-07-20T07:54:29;3.15;;;1.38;;
52512;SDS011;38422;53.172;6.974;2023-07-20T07:56:55;5.50;;;1.45;;
52512;SDS011;38422;53.172;6.974;2023-07-20T07:59:21;5.43;;;1.30;;
52512;SDS011;38422;53.172;6.974;2023-07-20T08:01:47;3.70;;;1.30;;
52512;SDS011;38422;53.172;6.974;2023-07-20T08:04:13;6.60;;;1.52;;
52512;SDS011;38422;53.172;6.974;2023-07-20T08:06:39;3.38;;;1.48;;
52512;SDS011;38422;53.172;6.974;2023-07-20T08:09:05;4.40;;;1.30;;
52512;SDS011;38422;53.172;6.974;2023-07-20T08:11:30;5.18;;;1.30;;
52512;SDS011;38422;53.172;6.974;2023-07-20T08:13:59;3.75;;;1.10;;
52512;SDS011;38422;53.172;6.974;2023-07-20T08:16:25;5.28;;;1.02;;
52512;SDS011;38422;53.172;6.974;2023-07-20T08:18:51;3.58;;;1.00;;
52512;SDS011;38422;53.172;6.974;2023-07-20T08:21:17;4.25;;;1.00;;
52512;SDS011;38422;53.172;6.974;2023-07-20T08:23:43;3.30;;;1.10;;
52512;SDS011;38422;53.172;6.974;2023-07-20T08:26:09;3.72;;;1.00;;
52512;SDS011;38422;53.172;6.974;2023-07-20T08:28:35;3.70;;;0.88;;
52512;SDS011;38422;53.172;6.974;2023-07-20T08:31:00;3.90;;;0.90;;
52512;SDS011;38422;53.172;6.974;2023-07-20T08:33:27;4.80;;;0.80;;
52512;SDS011;38422;53.172;6.974;2023-07-20T08:35:54;3.58;;;0.98;;
52512;SDS011;38422;53.172;6.974;2023-07-20T08:38:21;3.17;;;0.80;;
52512;SDS011;38422;53.172;6.974;2023-07-20T08:40:47;2.22;;;0.90;;
52512;SDS011;38422;53.172;6.974;2023-07-20T08:43:13;4.47;;;1.10;;
52512;SDS011;38422;53.172;6.974;2023-07-20T08:45:44;3.40;;;0.80;;
52512;SDS011;38422;53.172;6.974;2023-07-20T08:48:10;3.72;;;0.95;;
52512;SDS011;38422;53.172;6.974;2023-07-20T08:50:37;4.53;;;0.70;;
52512;SDS011;38422;53.172;6.974;2023-07-20T08:53:04;3.15;;;0.82;;
52512;SDS011;38422;53.172;6.974;2023-07-20T08:55:30;2.28;;;0.63;;
52512;SDS011;38422;53.172;6.974;2023-07-20T08:57:57;2.08;;;0.73;;
52512;SDS011;38422;53.172;6.974;2023-07-20T09:02:50;2.28;;;0.73;;
52512;SDS011;38422;53.172;6.974;2023-07-20T09:07:43;2.90;;;0.77;;
52512;SDS011;38422;53.172;6.974;2023-07-20T09:10:09;2.10;;;0.57;;
52512;SDS011;38422;53.172;6.974;2023-07-20T09:12:39;2.45;;;0.60;;
52512;SDS011;38422;53.172;6.974;2023-07-20T09:15:06;2.65;;;0.90;;
52512;SDS011;38422;53.172;6.974;2023-07-20T09:17:33;2.72;;;0.80;;
52512;SDS011;38422;53.172;6.974;2023-07-20T09:19:59;2.78;;;1.00;;
52512;SDS011;38422;53.172;6.974;2023-07-20T09:22:30;3.05;;;0.88;;
52512;SDS011;38422;53.172;6.974;2023-07-20T09:24:57;3.83;;;0.73;;
52512;SDS011;38422;53.172;6.974;2023-07-20T09:27:37;1.42;;;0.60;;
52512;SDS011;38422;53.172;6.974;2023-07-20T09:30:04;0.90;;;0.40;;
52512;SDS011;38422;53.172;6.974;2023-07-20T09:32:32;2.38;;;0.68;;
52512;SDS011;38422;53.172;6.974;2023-07-20T09:35:14;3.95;;;0.50;;
52512;SDS011;38422;53.172;6.974;2023-07-20T09:37:55;4.10;;;0.40;;
52512;SDS011;38422;53.172;6.974;2023-07-20T09:40:24;2.38;;;0.70;;
52512;SDS011;38422;53.172;6.974;2023-07-20T09:42:53;1.90;;;0.60;;
52512;SDS011;38422;53.172;6.974;2023-07-20T09:45:33;1.63;;;0.77;;
52512;SDS011;38422;53.172;6.974;2023-07-20T09:48:05;1.92;;;0.60;;
52512;SDS011;38422;53.172;6.974;2023-07-20T09:50:32;1.90;;;0.43;;
52512;SDS011;38422;53.172;6.974;2023-07-20T09:52:58;1.30;;;0.40;;
52512;SDS011;38422;53.172;6.974;2023-07-20T09:55:26;1.30;;;0.43;;
52512;SDS011;38422;53.172;6.974;2023-07-20T09:57:52;1.95;;;0.50;;
52512;SDS011;38422;53.172;6.974;2023-07-20T10:00:20;2.70;;;0.47;;
52512;SDS011;38422;53.172;6.974;2023-07-20T10:02:46;1.63;;;0.55;;
52512;SDS011;38422;53.172;6.974;2023-07-20T10:05:14;1.65;;;0.50;;
52512;SDS011;38422;53.172;6.974;2023-07-20T10:07:48;1.55;;;0.40;;
52512;SDS011;38422;53.172;6.974;2023-07-20T10:10:15;1.67;;;0.40;;
52512;SDS011;38422;53.172;6.974;2023-07-20T10:12:42;1.85;;;0.47;;
52512;SDS011;38422;53.172;6.974;2023-07-20T10:15:18;1.63;;;0.50;;
52512;SDS011;38422;53.172;6.974;2023-07-20T10:18:09;1.52;;;0.40;;
52512;SDS011;38422;53.172;6.974;2023-07-20T10:20:36;1.65;;;0.45;;
52512;SDS011;38422;53.172;6.974;2023-07-20T10:23:06;0.52;;;0.40;;
52512;SDS011;38422;53.172;6.974;2023-07-20T10:25:33;2.70;;;0.50;;
52512;SDS011;38422;53.172;6.974;2023-07-20T10:28:03;3.28;;;0.57;;
52512;SDS011;38422;53.172;6.974;2023-07-20T10:30:31;2.30;;;0.70;;
52512;SDS011;38422;53.172;6.974;2023-07-20T10:32:59;2.92;;;0.50;;
52512;SDS011;38422;53.172;6.974;2023-07-20T10:35:27;1.42;;;0.50;;
52512;SDS011;38422;53.172;6.974;2023-07-20T10:37:54;2.93;;;0.57;;
52512;SDS011;38422;53.172;6.974;2023-07-20T10:40:25;1.48;;;0.35;;
52512;SDS011;38422;53.172;6.974;2023-07-20T10:42:59;1.55;;;0.50;;
52512;SDS011;38422;53.172;6.974;2023-07-20T10:45:36;2.20;;;0.55;;
52512;SDS011;38422;53.172;6.974;2023-07-20T10:48:05;1.45;;;0.40;;
52512;SDS011;38422;53.172;6.974;2023-07-20T10:50:34;1.30;;;0.50;;
52512;SDS011;38422;53.172;6.974;2023-07-20T10:53:04;3.00;;;0.52;;
52512;SDS011;38422;53.172;6.974;2023-07-20T10:55:35;1.63;;;0.32;;
52512;SDS011;38422;53.172;6.974;2023-07-20T10:58:07;2.33;;;0.40;;
52512;SDS011;38422;53.172;6.974;2023-07-20T11:00:37;1.25;;;0.35;;
52512;SDS011;38422;53.172;6.974;2023-07-20T11:03:26;1.05;;;0.40;;
52512;SDS011;38422;53.172;6.974;2023-07-20T11:05:53;1.83;;;0.35;;
52512;SDS011;38422;53.172;6.974;2023-07-20T11:08:38;1.23;;;0.40;;
52512;SDS011;38422;53.172;6.974;2023-07-20T11:11:22;1.23;;;0.50;;
52512;SDS011;38422;53.172;6.974;2023-07-20T11:13:56;1.60;;;0.40;;
52512;SDS011;38422;53.172;6.974;2023-07-20T11:19:15;1.55;;;0.50;;
52512;SDS011;38422;53.172;6.974;2023-07-20T11:21:43;2.08;;;0.40;;
52512;SDS011;38422;53.172;6.974;2023-07-20T11:24:10;2.30;;;0.73;;
52512;SDS011;38422;53.172;6.974;2023-07-20T11:26:56;2.08;;;0.52;;
52512;SDS011;38422;53.172;6.974;2023-07-20T11:29:22;1.58;;;0.70;;
52512;SDS011;38422;53.172;6.974;2023-07-20T11:31:50;2.58;;;0.50;;
52512;SDS011;38422;53.172;6.974;2023-07-20T11:34:17;3.37;;;0.70;;
52512;SDS011;38422;53.172;6.974;2023-07-20T11:36:45;2.38;;;0.50;;
52512;SDS011;38422;53.172;6.974;2023-07-20T11:39:18;1.27;;;0.40;;
52512;SDS011;38422;53.172;6.974;2023-07-20T11:41:50;0.88;;;0.35;;
52512;SDS011;38422;53.172;6.974;2023-07-20T11:44:26;1.27;;;0.40;;
52512;SDS011;38422;53.172;6.974;2023-07-20T11:49:34;1.95;;;0.45;;
52512;SDS011;38422;53.172;6.974;2023-07-20T11:52:04;1.15;;;0.35;;
52512;SDS011;38422;53.172;6.974;2023-07-20T11:54:34;1.40;;;0.40;;
52512;SDS011;38422;53.172;6.974;2023-07-20T11:57:02;1.05;;;0.38;;
52512;SDS011;38422;53.172;6.974;2023-07-20T11:59:28;1.42;;;0.47;;
52512;SDS011;38422;53.172;6.974;2023-07-20T12:01:54;1.50;;;0.50;;
52512;SDS011;38422;53.172;6.974;2023-07-20T12:04:22;0.60;;;0.30;;
52512;SDS011;38422;53.172;6.974;2023-07-20T12:06:48;2.05;;;0.50;;
52512;SDS011;38422;53.172;6.974;2023-07-20T12:09:14;1.30;;;0.60;;
52512;SDS011;38422;53.172;6.974;2023-07-20T12:11:42;1.00;;;0.40;;
52512;SDS011;38422;53.172;6.974;2023-07-20T12:14:10;1.80;;;0.50;;
52512;SDS011;38422;53.172;6.974;2023-07-20T12:16:36;1.93;;;0.53;;
52512;SDS011;38422;53.172;6.974;2023-07-20T12:19:09;1.67;;;0.50;;
52512;SDS011;38422;53.172;6.974;2023-07-20T12:21:37;1.67;;;0.50;;
52512;SDS011;38422;53.172;6.974;2023-07-20T12:24:06;1.30;;;0.40;;
52512;SDS011;38422;53.172;6.974;2023-07-20T12:26:34;2.13;;;0.60;;
52512;SDS011;38422;53.172;6.974;2023-07-20T12:29:00;2.33;;;0.43;;
52512;SDS011;38422;53.172;6.974;2023-07-20T12:31:26;1.67;;;0.60;;
52512;SDS011;38422;53.172;6.974;2023-07-20T12:33:53;2.50;;;0.40;;
52512;SDS011;38422;53.172;6.974;2023-07-20T12:36:21;1.58;;;0.40;;
52512;SDS011;38422;53.172;6.974;2023-07-20T12:38:47;1.70;;;0.50;;
52512;SDS011;38422;53.172;6.974;2023-07-20T12:41:13;1.53;;;0.60;;
52512;SDS011;38422;53.172;6.974;2023-07-20T12:43:42;1.50;;;0.40;;
52512;SDS011;38422;53.172;6.974;2023-07-20T12:46:09;1.88;;;0.50;;
52512;SDS011;38422;53.172;6.974;2023-07-20T12:48:37;2.05;;;0.60;;
52512;SDS011;38422;53.172;6.974;2023-07-20T12:51:05;0.95;;;0.40;;
52512;SDS011;38422;53.172;6.974;2023-07-20T12:53:31;1.08;;;0.47;;
52512;SDS011;38422;53.172;6.974;2023-07-20T12:55:58;2.42;;;0.45;;
52512;SDS011;38422;53.172;6.974;2023-07-20T12:58:25;2.65;;;0.60;;
52512;SDS011;38422;53.172;6.974;2023-07-20T13:00:51;1.77;;;0.50;;
52512;SDS011;38422;53.172;6.974;2023-07-20T13:03:17;1.80;;;0.55;;
52512;SDS011;38422;53.172;6.974;2023-07-20T13:05:44;1.65;;;0.30;;
52512;SDS011;38422;53.172;6.974;2023-07-20T13:08:10;2.03;;;0.40;;
52512;SDS011;38422;53.172;6.974;2023-07-20T13:10:37;3.33;;;0.60;;
52512;SDS011;38422;53.172;6.974;2023-07-20T13:15:30;1.08;;;0.40;;
52512;SDS011;38422;53.172;6.974;2023-07-20T13:17:57;2.20;;;0.50;;
52512;SDS011;38422;53.172;6.974;2023-07-20T13:20:24;1.25;;;0.45;;
52512;SDS011;38422;53.172;6.974;2023-07-20T13:22:50;0.70;;;0.40;;
52512;SDS011;38422;53.172;6.974;2023-07-20T13:25:16;0.93;;;0.70;;
52512;SDS011;38422;53.172;6.974;2023-07-20T13:27:42;3.00;;;0.40;;
52512;SDS011;38422;53.172;6.974;2023-07-20T13:30:08;1.83;;;0.50;;
52512;SDS011;38422;53.172;6.974;2023-07-20T13:32:39;1.20;;;0.50;;
52512;SDS011;38422;53.172;6.974;2023-07-20T13:35:05;1.38;;;0.50;;
52512;SDS011;38422;53.172;6.974;2023-07-20T13:37:31;2.58;;;0.50;;
52512;SDS011;38422;53.172;6.974;2023-07-20T13:39:57;2.03;;;0.40;;
52512;SDS011;38422;53.172;6.974;2023-07-20T13:42:22;1.67;;;0.40;;
52512;SDS011;38422;53.172;6.974;2023-07-20T13:44:48;3.40;;;0.65;;
52512;SDS011;38422;53.172;6.974;2023-07-20T13:47:14;1.17;;;0.50;;
52512;SDS011;38422;53.172;6.974;2023-07-20T13:49:39;0.75;;;0.40;;
52512;SDS011;38422;53.172;6.974;2023-07-20T13:52:06;2.47;;;0.50;;
52512;SDS011;38422;53.172;6.974;2023-07-20T13:54:32;1.50;;;0.57;;
52512;SDS011;38422;53.172;6.974;2023-07-20T13:56:57;1.20;;;0.43;;
52512;SDS011;38422;53.172;6.974;2023-07-20T13:59:23;1.23;;;0.50;;
52512;SDS011;38422;53.172;6.974;2023-07-20T14:01:49;2.70;;;0.43;;
52512;SDS011;38422;53.172;6.974;2023-07-20T14:04:15;0.90;;;0.40;;
52512;SDS011;38422;53.172;6.974;2023-07-20T14:06:40;1.53;;;0.40;;
52512;SDS011;38422;53.172;6.974;2023-07-20T14:09:06;1.17;;;0.40;;
52512;SDS011;38422;53.172;6.974;2023-07-20T14:11:32;0.97;;;0.50;;
52512;SDS011;38422;53.172;6.974;2023-07-20T14:13:58;1.57;;;0.50;;
52512;SDS011;38422;53.172;6.974;2023-07-20T14:16:24;1.77;;;0.50;;
52512;SDS011;38422;53.172;6.974;2023-07-20T14:18:50;1.70;;;0.50;;
52512;SDS011;38422;53.172;6.974;2023-07-20T14:21:16;2.20;;;0.57;;
52512;SDS011;38422;53.172;6.974;2023-07-20T14:23:47;1.17;;;0.43;;
52512;SDS011;38422;53.172;6.974;2023-07-20T14:26:14;3.00;;;0.50;;
52512;SDS011;38422;53.172;6.974;2023-07-20T14:28:40;1.17;;;0.40;;
52512;SDS011;38422;53.172;6.974;2023-07-20T14:31:07;3.25;;;0.60;;
52512;SDS011;38422;53.172;6.974;2023-07-20T14:33:33;2.40;;;0.50;;
52512;SDS011;38422;53.172;6.974;2023-07-20T14:35:59;1.45;;;0.50;;
52512;SDS011;38422;53.172;6.974;2023-07-20T14:38:27;1.83;;;0.57;;
52512;SDS011;38422;53.172;6.974;2023-07-20T14:40:56;1.23;;;0.40;;
52512;SDS011;38422;53.172;6.974;2023-07-20T14:43:22;1.55;;;0.47;;
52512;SDS011;38422;53.172;6.974;2023-07-20T14:45:47;1.07;;;0.50;;
52512;SDS011;38422;53.172;6.974;2023-07-20T14:48:13;1.27;;;0.40;;
52512;SDS011;38422;53.172;6.974;2023-07-20T14:50:39;1.50;;;0.47;;
52512;SDS011;38422;53.172;6.974;2023-07-20T14:53:05;4.65;;;0.60;;
52512;SDS011;38422;53.172;6.974;2023-07-20T14:55:30;2.40;;;0.40;;
52512;SDS011;38422;53.172;6.974;2023-07-20T14:57:56;3.23;;;0.63;;
52512;SDS011;38422;53.172;6.974;2023-07-20T15:00:22;1.20;;;0.40;;
52512;SDS011;38422;53.172;6.974;2023-07-20T15:02:48;1.95;;;0.60;;
52512;SDS011;38422;53.172;6.974;2023-07-20T15:05:20;0.57;;;0.47;;
52512;SDS011;38422;53.172;6.974;2023-07-20T15:07:49;0.95;;;0.30;;
52512;SDS011;38422;53.172;6.974;2023-07-20T15:10:15;1.35;;;0.50;;
52512;SDS011;38422;53.172;6.974;2023-07-20T15:12:41;1.67;;;0.65;;
52512;SDS011;38422;53.172;6.974;2023-07-20T15:15:11;2.25;;;0.70;;
52512;SDS011;38422;53.172;6.974;2023-07-20T15:17:38;1.67;;;0.45;;